sensor_id;sensor_type;location;lat;lon;timestamp;P1;durP1;ratioP1;P2;durP2;ratioP2
9797;SDS011;4938;57.492;12.652;2022-09-09T00:00:13;0.40;;;0.40;;
9797;SDS011;4938;57.492;12.652;2022-09-09T00:03:02;0.40;;;0.40;;
9797;SDS011;4938;57.492;12.652;2022-09-09T00:05:59;0.37;;;0.37;;
9797;SDS011;4938;57.492;12.652;2022-09-09T00:08:55;0.40;;;0.40;;
9797;SDS011;4938;57.492;12.652;2022-09-09T00:11:49;0.40;;;0.40;;
9797;SDS011;4938;57.492;12.652;2022-09-09T00:14:40;0.40;;;0.40;;
9797;SDS011;4938;57.492;12.652;2022-09-09T00:17:37;0.40;;;0.40;;
9797;SDS011;4938;57.492;12.652;2022-09-09T00:20:28;0.57;;;0.57;;
9797;SDS011;4938;57.492;12.652;2022-09-09T00:23:20;0.77;;;0.50;;
9797;SDS011;4938;57.492;12.652;2022-09-09T00:26:13;0.40;;;0.40;;
9797;SDS011;4938;57.492;12.652;2022-09-09T00:29:10;0.50;;;0.50;;
9797;SDS011;4938;57.492;12.652;2022-09-09T00:32:11;0.37;;;0.37;;
9797;SDS011;4938;57.492;12.652;2022-09-09T00:35:02;0.37;;;0.37;;
9797;SDS011;4938;57.492;12.652;2022-09-09T00:37:57;2.20;;;0.60;;
9797;SDS011;4938;57.492;12.652;2022-09-09T00:40:49;0.50;;;0.50;;
9797;SDS011;4938;57.492;12.652;2022-09-09T00:43:38;0.40;;;0.40;;
9797;SDS011;4938;57.492;12.652;2022-09-09T00:49:57;0.50;;;0.50;;
9797;SDS011;4938;57.492;12.652;2022-09-09T00:52:51;0.40;;;0.40;;
9797;SDS011;4938;57.492;12.652;2022-09-09T00:55:46;0.43;;;0.43;;
9797;SDS011;4938;57.492;12.652;2022-09-09T00:58:36;0.30;;;0.30;;
9797;SDS011;4938;57.492;12.652;2022-09-09T01:01:23;0.30;;;0.30;;
9797;SDS011;4938;57.492;12.652;2022-09-09T01:04:10;0.40;;;0.40;;
9797;SDS011;4938;57.492;12.652;2022-09-09T01:07:06;0.73;;;0.47;;
9797;SDS011;4938;57.492;12.652;2022-09-09T01:10:03;0.40;;;0.40;;
9797;SDS011;4938;57.492;12.652;2022-09-09T01:12:53;0.33;;;0.33;;
9797;SDS011;4938;57.492;12.652;2022-09-09T01:15:45;0.40;;;0.40;;
9797;SDS011;4938;57.492;12.652;2022-09-09T01:18:33;0.53;;;0.53;;
9797;SDS011;4938;57.492;12.652;2022-09-09T01:21:27;0.33;;;0.33;;
9797;SDS011;4938;57.492;12.652;2022-09-09T01:24:28;0.40;;;0.40;;
9797;SDS011;4938;57.492;12.652;2022-09-09T01:27:23;0.40;;;0.40;;
9797;SDS011;4938;57.492;12.652;2022-09-09T01:30:11;1.27;;;0.50;;
9797;SDS011;4938;57.492;12.652;2022-09-09T01:33:01;0.40;;;0.40;;
9797;SDS011;4938;57.492;12.652;2022-09-09T01:35:50;0.43;;;0.43;;
9797;SDS011;4938;57.492;12.652;2022-09-09T01:38:40;0.40;;;0.40;;
9797;SDS011;4938;57.492;12.652;2022-09-09T01:41:27;0.93;;;0.50;;
9797;SDS011;4938;57.492;12.652;2022-09-09T01:44:16;0.50;;;0.50;;
9797;SDS011;4938;57.492;12.652;2022-09-09T01:47:03;0.60;;;0.60;;
9797;SDS011;4938;57.492;12.652;2022-09-09T01:49:51;0.57;;;0.57;;
9797;SDS011;4938;57.492;12.652;2022-09-09T01:52:38;0.40;;;0.40;;
9797;SDS011;4938;57.492;12.652;2022-09-09T01:55:28;0.77;;;0.40;;
9797;SDS011;4938;57.492;12.652;2022-09-09T01:58:19;0.50;;;0.50;;
9797;SDS011;4938;57.492;12.652;2022-09-09T02:01:18;0.43;;;0.43;;
9797;SDS011;4938;57.492;12.652;2022-09-09T02:04:18;0.60;;;0.60;;
9797;SDS011;4938;57.492;12.652;2022-09-09T02:07:16;0.60;;;0.60;;
9797;SDS011;4938;57.492;12.652;2022-09-09T02:10:19;0.50;;;0.50;;
9797;SDS011;4938;57.492;12.652;2022-09-09T02:13:11;0.40;;;0.40;;
9797;SDS011;4938;57.492;12.652;2022-09-09T02:16:00;0.60;;;0.60;;
9797;SDS011;4938;57.492;12.652;2022-09-09T02:18:55;0.40;;;0.40;;
9797;SDS011;4938;57.492;12.652;2022-09-09T02:21:47;0.50;;;0.50;;
9797;SDS011;4938;57.492;12.652;2022-09-09T02:24:34;0.50;;;0.50;;
9797;SDS011;4938;57.492;12.652;2022-09-09T02:27:23;0.50;;;0.50;;
9797;SDS011;4938;57.492;12.652;2022-09-09T02:30:11;0.40;;;0.40;;
9797;SDS011;4938;57.492;12.652;2022-09-09T02:32:58;0.60;;;0.60;;
9797;SDS011;4938;57.492;12.652;2022-09-09T02:35:48;0.40;;;0.40;;
9797;SDS011;4938;57.492;12.652;2022-09-09T02:38:37;0.40;;;0.40;;
9797;SDS011;4938;57.492;12.652;2022-09-09T02:41:30;0.60;;;0.60;;
9797;SDS011;4938;57.492;12.652;2022-09-09T02:44:19;0.50;;;0.50;;
9797;SDS011;4938;57.492;12.652;2022-09-09T02:50:14;0.60;;;0.60;;
9797;SDS011;4938;57.492;12.652;2022-09-09T02:53:07;1.87;;;0.60;;
9797;SDS011;4938;57.492;12.652;2022-09-09T02:56:02;0.53;;;0.53;;
9797;SDS011;4938;57.492;12.652;2022-09-09T02:58:52;0.43;;;0.43;;
9797;SDS011;4938;57.492;12.652;2022-09-09T03:01:39;0.80;;;0.80;;
9797;SDS011;4938;57.492;12.652;2022-09-09T03:04:26;0.40;;;0.40;;
9797;SDS011;4938;57.492;12.652;2022-09-09T03:07:13;0.60;;;0.60;;
9797;SDS011;4938;57.492;12.652;2022-09-09T03:10:02;0.50;;;0.50;;
9797;SDS011;4938;57.492;12.652;2022-09-09T03:12:50;0.47;;;0.47;;
9797;SDS011;4938;57.492;12.652;2022-09-09T03:15:37;0.70;;;0.67;;
9797;SDS011;4938;57.492;12.652;2022-09-09T03:18:24;0.50;;;0.50;;
9797;SDS011;4938;57.492;12.652;2022-09-09T03:21:11;0.50;;;0.50;;
9797;SDS011;4938;57.492;12.652;2022-09-09T03:23:58;0.60;;;0.60;;
9797;SDS011;4938;57.492;12.652;2022-09-09T03:26:46;0.60;;;0.60;;
9797;SDS011;4938;57.492;12.652;2022-09-09T03:29:33;0.60;;;0.60;;
9797;SDS011;4938;57.492;12.652;2022-09-09T03:32:20;0.63;;;0.63;;
9797;SDS011;4938;57.492;12.652;2022-09-09T03:35:08;0.70;;;0.70;;
9797;SDS011;4938;57.492;12.652;2022-09-09T03:37:55;0.50;;;0.50;;
9797;SDS011;4938;57.492;12.652;2022-09-09T03:40:48;0.57;;;0.57;;
9797;SDS011;4938;57.492;12.652;2022-09-09T03:43:36;0.40;;;0.40;;
9797;SDS011;4938;57.492;12.652;2022-09-09T03:46:24;0.70;;;0.60;;
9797;SDS011;4938;57.492;12.652;2022-09-09T03:49:12;0.57;;;0.57;;
9797;SDS011;4938;57.492;12.652;2022-09-09T03:51:59;0.53;;;0.53;;
9797;SDS011;4938;57.492;12.652;2022-09-09T03:54:46;0.70;;;0.70;;
9797;SDS011;4938;57.492;12.652;2022-09-09T03:57:33;0.47;;;0.47;;
9797;SDS011;4938;57.492;12.652;2022-09-09T04:00:22;1.00;;;0.60;;
9797;SDS011;4938;57.492;12.652;2022-09-09T04:03:09;0.50;;;0.50;;
9797;SDS011;4938;57.492;12.652;2022-09-09T04:05:57;0.57;;;0.57;;
9797;SDS011;4938;57.492;12.652;2022-09-09T04:08:45;0.40;;;0.40;;
9797;SDS011;4938;57.492;12.652;2022-09-09T04:11:33;1.87;;;0.60;;
9797;SDS011;4938;57.492;12.652;2022-09-09T04:14:20;0.53;;;0.53;;
9797;SDS011;4938;57.492;12.652;2022-09-09T04:17:09;0.60;;;0.60;;
9797;SDS011;4938;57.492;12.652;2022-09-09T04:19:56;0.57;;;0.57;;
9797;SDS011;4938;57.492;12.652;2022-09-09T04:22:43;0.60;;;0.60;;
9797;SDS011;4938;57.492;12.652;2022-09-09T04:25:30;0.50;;;0.50;;
9797;SDS011;4938;57.492;12.652;2022-09-09T04:28:18;0.60;;;0.60;;
9797;SDS011;4938;57.492;12.652;2022-09-09T04:31:07;0.70;;;0.67;;
9797;SDS011;4938;57.492;12.652;2022-09-09T04:33:58;0.50;;;0.50;;
9797;SDS011;4938;57.492;12.652;2022-09-09T04:36:47;0.60;;;0.60;;
9797;SDS011;4938;57.492;12.652;2022-09-09T04:39:34;1.27;;;0.80;;
9797;SDS011;4938;57.492;12.652;2022-09-09T04:42:21;0.80;;;0.77;;
9797;SDS011;4938;57.492;12.652;2022-09-09T04:45:09;2.57;;;1.17;;
9797;SDS011;4938;57.492;12.652;2022-09-09T04:47:58;1.00;;;1.00;;
9797;SDS011;4938;57.492;12.652;2022-09-09T04:50:54;1.83;;;1.17;;
9797;SDS011;4938;57.492;12.652;2022-09-09T04:53:42;1.27;;;1.17;;
9797;SDS011;4938;57.492;12.652;2022-09-09T04:56:28;2.10;;;1.10;;
9797;SDS011;4938;57.492;12.652;2022-09-09T04:59:15;1.70;;;1.60;;
9797;SDS011;4938;57.492;12.652;2022-09-09T05:02:02;1.60;;;1.40;;
9797;SDS011;4938;57.492;12.652;2022-09-09T05:04:49;3.87;;;1.33;;
9797;SDS011;4938;57.492;12.652;2022-09-09T05:07:38;1.13;;;1.03;;
9797;SDS011;4938;57.492;12.652;2022-09-09T05:10:25;1.77;;;1.20;;
9797;SDS011;4938;57.492;12.652;2022-09-09T05:13:12;1.10;;;1.00;;
9797;SDS011;4938;57.492;12.652;2022-09-09T05:15:58;2.03;;;1.53;;
9797;SDS011;4938;57.492;12.652;2022-09-09T05:18:45;1.30;;;1.20;;
9797;SDS011;4938;57.492;12.652;2022-09-09T05:21:32;1.30;;;1.20;;
9797;SDS011;4938;57.492;12.652;2022-09-09T05:24:21;1.13;;;1.07;;
9797;SDS011;4938;57.492;12.652;2022-09-09T05:27:08;1.00;;;1.00;;
9797;SDS011;4938;57.492;12.652;2022-09-09T05:29:57;1.60;;;1.50;;
9797;SDS011;4938;57.492;12.652;2022-09-09T05:32:44;0.83;;;0.83;;
9797;SDS011;4938;57.492;12.652;2022-09-09T05:35:34;1.20;;;1.20;;
9797;SDS011;4938;57.492;12.652;2022-09-09T05:38:21;1.50;;;1.30;;
9797;SDS011;4938;57.492;12.652;2022-09-09T05:41:11;1.30;;;1.20;;
9797;SDS011;4938;57.492;12.652;2022-09-09T05:44:01;1.70;;;1.60;;
9797;SDS011;4938;57.492;12.652;2022-09-09T05:46:48;1.17;;;1.10;;
9797;SDS011;4938;57.492;12.652;2022-09-09T05:49:35;1.27;;;1.17;;
9797;SDS011;4938;57.492;12.652;2022-09-09T05:52:23;1.60;;;1.50;;
9797;SDS011;4938;57.492;12.652;2022-09-09T05:55:11;1.37;;;1.20;;
9797;SDS011;4938;57.492;12.652;2022-09-09T05:57:59;1.37;;;1.20;;
9797;SDS011;4938;57.492;12.652;2022-09-09T06:00:46;1.20;;;1.10;;
9797;SDS011;4938;57.492;12.652;2022-09-09T06:03:33;1.37;;;1.27;;
9797;SDS011;4938;57.492;12.652;2022-09-09T06:06:22;1.20;;;1.10;;
9797;SDS011;4938;57.492;12.652;2022-09-09T06:09:11;1.53;;;1.43;;
9797;SDS011;4938;57.492;12.652;2022-09-09T06:11:58;1.57;;;1.07;;
9797;SDS011;4938;57.492;12.652;2022-09-09T06:14:47;1.37;;;1.30;;
9797;SDS011;4938;57.492;12.652;2022-09-09T06:17:36;1.27;;;1.20;;
9797;SDS011;4938;57.492;12.652;2022-09-09T06:20:24;1.27;;;1.17;;
9797;SDS011;4938;57.492;12.652;2022-09-09T06:23:11;1.30;;;1.20;;
9797;SDS011;4938;57.492;12.652;2022-09-09T06:26:02;1.63;;;1.30;;
9797;SDS011;4938;57.492;12.652;2022-09-09T06:28:51;2.50;;;1.40;;
9797;SDS011;4938;57.492;12.652;2022-09-09T06:31:40;1.17;;;1.07;;
9797;SDS011;4938;57.492;12.652;2022-09-09T06:34:27;1.20;;;1.07;;
9797;SDS011;4938;57.492;12.652;2022-09-09T06:37:14;1.73;;;1.07;;
9797;SDS011;4938;57.492;12.652;2022-09-09T06:40:01;1.30;;;1.20;;
9797;SDS011;4938;57.492;12.652;2022-09-09T06:42:48;1.23;;;1.10;;
9797;SDS011;4938;57.492;12.652;2022-09-09T06:45:35;2.03;;;1.03;;
9797;SDS011;4938;57.492;12.652;2022-09-09T06:48:24;1.70;;;1.27;;
9797;SDS011;4938;57.492;12.652;2022-09-09T06:51:14;1.40;;;1.30;;
9797;SDS011;4938;57.492;12.652;2022-09-09T06:54:03;1.27;;;1.17;;
9797;SDS011;4938;57.492;12.652;2022-09-09T06:56:51;2.00;;;1.10;;
9797;SDS011;4938;57.492;12.652;2022-09-09T06:59:38;1.13;;;1.10;;
9797;SDS011;4938;57.492;12.652;2022-09-09T07:02:25;1.17;;;0.90;;
9797;SDS011;4938;57.492;12.652;2022-09-09T07:05:14;1.60;;;1.17;;
9797;SDS011;4938;57.492;12.652;2022-09-09T07:08:02;0.80;;;0.80;;
9797;SDS011;4938;57.492;12.652;2022-09-09T07:10:49;1.30;;;1.20;;
9797;SDS011;4938;57.492;12.652;2022-09-09T07:13:36;0.93;;;0.90;;
9797;SDS011;4938;57.492;12.652;2022-09-09T07:16:24;0.97;;;0.97;;
9797;SDS011;4938;57.492;12.652;2022-09-09T07:19:13;1.10;;;1.10;;
9797;SDS011;4938;57.492;12.652;2022-09-09T07:22:01;0.90;;;0.90;;
9797;SDS011;4938;57.492;12.652;2022-09-09T07:24:49;0.87;;;0.87;;
9797;SDS011;4938;57.492;12.652;2022-09-09T07:27:35;1.10;;;1.00;;
9797;SDS011;4938;57.492;12.652;2022-09-09T07:30:22;2.70;;;1.10;;
9797;SDS011;4938;57.492;12.652;2022-09-09T07:33:09;1.03;;;1.03;;
9797;SDS011;4938;57.492;12.652;2022-09-09T07:36:01;0.97;;;0.97;;
9797;SDS011;4938;57.492;12.652;2022-09-09T07:38:52;1.10;;;1.03;;
9797;SDS011;4938;57.492;12.652;2022-09-09T07:41:41;1.50;;;1.00;;
9797;SDS011;4938;57.492;12.652;2022-09-09T07:44:29;0.87;;;0.87;;
9797;SDS011;4938;57.492;12.652;2022-09-09T07:47:17;1.00;;;0.93;;
9797;SDS011;4938;57.492;12.652;2022-09-09T07:50:05;1.00;;;1.00;;
9797;SDS011;4938;57.492;12.652;2022-09-09T07:52:54;1.37;;;1.10;;
9797;SDS011;4938;57.492;12.652;2022-09-09T07:55:42;1.23;;;1.17;;
9797;SDS011;4938;57.492;12.652;2022-09-09T07:58:29;1.27;;;1.17;;
9797;SDS011;4938;57.492;12.652;2022-09-09T08:01:18;1.03;;;0.97;;
9797;SDS011;4938;57.492;12.652;2022-09-09T08:04:10;0.83;;;0.80;;
9797;SDS011;4938;57.492;12.652;2022-09-09T08:07:00;1.10;;;1.10;;
9797;SDS011;4938;57.492;12.652;2022-09-09T08:09:48;1.07;;;1.07;;
9797;SDS011;4938;57.492;12.652;2022-09-09T08:12:36;0.80;;;0.80;;
9797;SDS011;4938;57.492;12.652;2022-09-09T08:15:23;1.00;;;1.00;;
9797;SDS011;4938;57.492;12.652;2022-09-09T08:18:10;0.90;;;0.90;;
9797;SDS011;4938;57.492;12.652;2022-09-09T08:20:57;0.97;;;0.90;;
9797;SDS011;4938;57.492;12.652;2022-09-09T08:23:45;1.10;;;1.00;;
9797;SDS011;4938;57.492;12.652;2022-09-09T08:26:34;0.90;;;0.90;;
9797;SDS011;4938;57.492;12.652;2022-09-09T08:29:24;0.90;;;0.80;;
9797;SDS011;4938;57.492;12.652;2022-09-09T08:32:10;0.73;;;0.73;;
9797;SDS011;4938;57.492;12.652;2022-09-09T08:34:58;1.10;;;0.93;;
9797;SDS011;4938;57.492;12.652;2022-09-09T08:37:45;0.93;;;0.80;;
9797;SDS011;4938;57.492;12.652;2022-09-09T08:40:32;1.00;;;1.00;;
9797;SDS011;4938;57.492;12.652;2022-09-09T08:43:27;1.67;;;1.07;;
9797;SDS011;4938;57.492;12.652;2022-09-09T08:46:20;1.27;;;1.17;;
9797;SDS011;4938;57.492;12.652;2022-09-09T08:49:21;1.10;;;1.10;;
9797;SDS011;4938;57.492;12.652;2022-09-09T08:52:25;1.20;;;1.10;;
9797;SDS011;4938;57.492;12.652;2022-09-09T08:55:17;1.03;;;1.03;;
9797;SDS011;4938;57.492;12.652;2022-09-09T08:58:12;1.20;;;1.20;;
9797;SDS011;4938;57.492;12.652;2022-09-09T09:01:04;1.20;;;1.20;;
9797;SDS011;4938;57.492;12.652;2022-09-09T09:04:14;1.13;;;1.03;;
9797;SDS011;4938;57.492;12.652;2022-09-09T09:07:18;2.53;;;1.40;;
9797;SDS011;4938;57.492;12.652;2022-09-09T09:10:15;1.57;;;1.47;;
9797;SDS011;4938;57.492;12.652;2022-09-09T09:13:13;1.23;;;1.17;;
9797;SDS011;4938;57.492;12.652;2022-09-09T09:16:03;1.53;;;1.40;;
9797;SDS011;4938;57.492;12.652;2022-09-09T09:18:59;1.50;;;1.40;;
9797;SDS011;4938;57.492;12.652;2022-09-09T09:21:50;1.50;;;1.40;;
9797;SDS011;4938;57.492;12.652;2022-09-09T09:24:42;1.57;;;1.33;;
9797;SDS011;4938;57.492;12.652;2022-09-09T09:27:38;1.40;;;1.30;;
9797;SDS011;4938;57.492;12.652;2022-09-09T09:30:32;1.30;;;1.30;;
9797;SDS011;4938;57.492;12.652;2022-09-09T09:33:27;1.53;;;1.43;;
9797;SDS011;4938;57.492;12.652;2022-09-09T09:36:18;1.17;;;1.10;;
9797;SDS011;4938;57.492;12.652;2022-09-09T09:39:07;1.20;;;1.20;;
9797;SDS011;4938;57.492;12.652;2022-09-09T09:41:55;1.57;;;1.40;;
9797;SDS011;4938;57.492;12.652;2022-09-09T09:44:43;1.50;;;1.40;;
9797;SDS011;4938;57.492;12.652;2022-09-09T09:47:30;1.20;;;1.20;;
9797;SDS011;4938;57.492;12.652;2022-09-09T09:50:18;1.30;;;1.30;;
9797;SDS011;4938;57.492;12.652;2022-09-09T09:53:17;1.20;;;1.20;;
9797;SDS011;4938;57.492;12.652;2022-09-09T09:56:09;1.63;;;1.43;;
9797;SDS011;4938;57.492;12.652;2022-09-09T09:58:57;1.10;;;1.10;;
9797;SDS011;4938;57.492;12.652;2022-09-09T10:01:45;1.40;;;1.20;;
9797;SDS011;4938;57.492;12.652;2022-09-09T10:04:32;1.33;;;1.30;;
9797;SDS011;4938;57.492;12.652;2022-09-09T10:07:19;1.30;;;1.30;;
9797;SDS011;4938;57.492;12.652;2022-09-09T10:10:08;1.30;;;1.30;;
9797;SDS011;4938;57.492;12.652;2022-09-09T10:13:03;1.00;;;1.00;;
9797;SDS011;4938;57.492;12.652;2022-09-09T10:15:59;2.30;;;1.47;;
9797;SDS011;4938;57.492;12.652;2022-09-09T10:18:58;1.10;;;1.10;;
9797;SDS011;4938;57.492;12.652;2022-09-09T10:21:51;1.37;;;1.30;;
9797;SDS011;4938;57.492;12.652;2022-09-09T10:24:56;1.20;;;1.20;;
9797;SDS011;4938;57.492;12.652;2022-09-09T10:28:00;1.50;;;1.40;;
9797;SDS011;4938;57.492;12.652;2022-09-09T10:31:07;1.50;;;1.40;;
9797;SDS011;4938;57.492;12.652;2022-09-09T10:34:09;2.20;;;1.57;;
9797;SDS011;4938;57.492;12.652;2022-09-09T10:37:06;1.27;;;1.27;;
9797;SDS011;4938;57.492;12.652;2022-09-09T10:40:04;1.10;;;1.10;;
9797;SDS011;4938;57.492;12.652;2022-09-09T10:43:15;1.50;;;1.40;;
9797;SDS011;4938;57.492;12.652;2022-09-09T10:46:14;1.33;;;1.27;;
9797;SDS011;4938;57.492;12.652;2022-09-09T10:49:10;1.27;;;1.27;;
9797;SDS011;4938;57.492;12.652;2022-09-09T10:52:10;1.50;;;1.40;;
9797;SDS011;4938;57.492;12.652;2022-09-09T10:55:02;1.60;;;1.50;;
9797;SDS011;4938;57.492;12.652;2022-09-09T10:57:58;1.70;;;1.60;;
9797;SDS011;4938;57.492;12.652;2022-09-09T11:00:48;1.47;;;1.37;;
9797;SDS011;4938;57.492;12.652;2022-09-09T11:03:40;1.83;;;1.53;;
9797;SDS011;4938;57.492;12.652;2022-09-09T11:06:30;1.50;;;1.40;;
9797;SDS011;4938;57.492;12.652;2022-09-09T11:09:21;1.33;;;1.23;;
9797;SDS011;4938;57.492;12.652;2022-09-09T11:12:12;1.70;;;1.60;;
9797;SDS011;4938;57.492;12.652;2022-09-09T11:15:05;1.23;;;1.20;;
9797;SDS011;4938;57.492;12.652;2022-09-09T11:17:55;1.30;;;1.23;;
9797;SDS011;4938;57.492;12.652;2022-09-09T11:20:45;1.70;;;1.60;;
9797;SDS011;4938;57.492;12.652;2022-09-09T11:23:38;1.47;;;1.47;;
9797;SDS011;4938;57.492;12.652;2022-09-09T11:26:30;1.47;;;1.47;;
9797;SDS011;4938;57.492;12.652;2022-09-09T11:29:36;1.33;;;1.33;;
9797;SDS011;4938;57.492;12.652;2022-09-09T11:32:45;1.50;;;1.40;;
9797;SDS011;4938;57.492;12.652;2022-09-09T11:35:50;1.47;;;1.47;;
9797;SDS011;4938;57.492;12.652;2022-09-09T11:38:48;1.43;;;1.43;;
9797;SDS011;4938;57.492;12.652;2022-09-09T11:41:37;1.63;;;1.53;;
9797;SDS011;4938;57.492;12.652;2022-09-09T11:44:25;1.53;;;1.53;;
9797;SDS011;4938;57.492;12.652;2022-09-09T11:47:20;1.40;;;1.40;;
9797;SDS011;4938;57.492;12.652;2022-09-09T11:50:26;1.57;;;1.47;;
9797;SDS011;4938;57.492;12.652;2022-09-09T11:53:22;1.33;;;1.33;;
9797;SDS011;4938;57.492;12.652;2022-09-09T11:56:09;1.50;;;1.40;;
9797;SDS011;4938;57.492;12.652;2022-09-09T11:59:00;1.20;;;1.20;;
9797;SDS011;4938;57.492;12.652;2022-09-09T12:01:49;1.23;;;1.23;;
9797;SDS011;4938;57.492;12.652;2022-09-09T12:04:41;1.70;;;1.60;;
9797;SDS011;4938;57.492;12.652;2022-09-09T12:07:36;1.50;;;1.50;;
9797;SDS011;4938;57.492;12.652;2022-09-09T12:10:25;1.53;;;1.43;;
9797;SDS011;4938;57.492;12.652;2022-09-09T12:13:15;1.20;;;1.20;;
9797;SDS011;4938;57.492;12.652;2022-09-09T12:16:04;1.70;;;1.60;;
9797;SDS011;4938;57.492;12.652;2022-09-09T12:18:51;1.57;;;1.47;;
9797;SDS011;4938;57.492;12.652;2022-09-09T12:21:51;1.50;;;1.43;;
9797;SDS011;4938;57.492;12.652;2022-09-09T12:24:48;1.70;;;1.40;;
9797;SDS011;4938;57.492;12.652;2022-09-09T12:27:44;1.50;;;1.40;;
9797;SDS011;4938;57.492;12.652;2022-09-09T12:30:39;1.47;;;1.37;;
9797;SDS011;4938;57.492;12.652;2022-09-09T12:33:35;1.37;;;1.37;;
9797;SDS011;4938;57.492;12.652;2022-09-09T12:36:27;1.50;;;1.50;;
9797;SDS011;4938;57.492;12.652;2022-09-09T12:39:17;1.43;;;1.43;;
9797;SDS011;4938;57.492;12.652;2022-09-09T12:42:15;1.10;;;1.10;;
9797;SDS011;4938;57.492;12.652;2022-09-09T12:45:03;1.50;;;1.40;;
9797;SDS011;4938;57.492;12.652;2022-09-09T12:48:03;2.20;;;1.70;;
9797;SDS011;4938;57.492;12.652;2022-09-09T12:50:52;1.43;;;1.43;;
9797;SDS011;4938;57.492;12.652;2022-09-09T12:53:39;1.40;;;1.17;;
9797;SDS011;4938;57.492;12.652;2022-09-09T12:56:27;1.40;;;1.40;;
9797;SDS011;4938;57.492;12.652;2022-09-09T12:59:22;1.50;;;1.40;;
9797;SDS011;4938;57.492;12.652;2022-09-09T13:02:14;1.50;;;1.40;;
9797;SDS011;4938;57.492;12.652;2022-09-09T13:05:12;1.60;;;1.50;;
9797;SDS011;4938;57.492;12.652;2022-09-09T13:08:03;1.53;;;1.43;;
9797;SDS011;4938;57.492;12.652;2022-09-09T13:10:51;1.53;;;1.43;;
9797;SDS011;4938;57.492;12.652;2022-09-09T13:13:41;1.67;;;1.57;;
9797;SDS011;4938;57.492;12.652;2022-09-09T13:16:37;1.37;;;1.37;;
9797;SDS011;4938;57.492;12.652;2022-09-09T13:19:25;1.43;;;1.43;;
9797;SDS011;4938;57.492;12.652;2022-09-09T13:22:14;2.13;;;1.70;;
9797;SDS011;4938;57.492;12.652;2022-09-09T13:25:17;1.80;;;1.70;;
9797;SDS011;4938;57.492;12.652;2022-09-09T13:28:18;1.47;;;1.37;;
9797;SDS011;4938;57.492;12.652;2022-09-09T13:31:19;1.23;;;1.23;;
9797;SDS011;4938;57.492;12.652;2022-09-09T13:34:11;1.30;;;1.30;;
9797;SDS011;4938;57.492;12.652;2022-09-09T13:37:01;1.60;;;1.50;;
9797;SDS011;4938;57.492;12.652;2022-09-09T13:39:51;1.60;;;1.50;;
9797;SDS011;4938;57.492;12.652;2022-09-09T13:42:39;1.40;;;1.30;;
9797;SDS011;4938;57.492;12.652;2022-09-09T13:45:28;1.00;;;1.00;;
9797;SDS011;4938;57.492;12.652;2022-09-09T13:48:17;1.50;;;1.50;;
9797;SDS011;4938;57.492;12.652;2022-09-09T13:54:16;1.50;;;1.40;;
9797;SDS011;4938;57.492;12.652;2022-09-09T13:57:05;1.30;;;1.30;;
9797;SDS011;4938;57.492;12.652;2022-09-09T14:00:00;1.20;;;1.20;;
9797;SDS011;4938;57.492;12.652;2022-09-09T14:02:47;1.30;;;1.30;;
9797;SDS011;4938;57.492;12.652;2022-09-09T14:05:34;1.30;;;1.30;;
9797;SDS011;4938;57.492;12.652;2022-09-09T14:08:24;1.20;;;1.20;;
9797;SDS011;4938;57.492;12.652;2022-09-09T14:11:13;1.53;;;1.43;;
9797;SDS011;4938;57.492;12.652;2022-09-09T14:14:00;1.20;;;1.20;;
9797;SDS011;4938;57.492;12.652;2022-09-09T14:16:47;1.30;;;1.20;;
9797;SDS011;4938;57.492;12.652;2022-09-09T14:19:34;1.40;;;1.40;;
9797;SDS011;4938;57.492;12.652;2022-09-09T14:22:22;1.10;;;1.10;;
9797;SDS011;4938;57.492;12.652;2022-09-09T14:25:11;1.30;;;1.30;;
9797;SDS011;4938;57.492;12.652;2022-09-09T14:27:58;1.37;;;1.37;;
9797;SDS011;4938;57.492;12.652;2022-09-09T14:30:45;1.10;;;1.10;;
9797;SDS011;4938;57.492;12.652;2022-09-09T14:33:32;1.40;;;1.40;;
9797;SDS011;4938;57.492;12.652;2022-09-09T14:36:19;1.40;;;1.40;;
9797;SDS011;4938;57.492;12.652;2022-09-09T14:39:06;1.07;;;1.07;;
9797;SDS011;4938;57.492;12.652;2022-09-09T14:41:55;1.50;;;1.40;;
9797;SDS011;4938;57.492;12.652;2022-09-09T14:44:42;1.43;;;1.33;;
9797;SDS011;4938;57.492;12.652;2022-09-09T14:47:29;1.50;;;1.37;;
9797;SDS011;4938;57.492;12.652;2022-09-09T14:50:16;1.07;;;1.07;;
9797;SDS011;4938;57.492;12.652;2022-09-09T14:53:02;1.10;;;1.10;;
9797;SDS011;4938;57.492;12.652;2022-09-09T14:55:49;1.33;;;1.20;;
9797;SDS011;4938;57.492;12.652;2022-09-09T14:58:38;1.33;;;1.20;;
9797;SDS011;4938;57.492;12.652;2022-09-09T15:01:24;1.20;;;1.20;;
9797;SDS011;4938;57.492;12.652;2022-09-09T15:04:12;1.40;;;1.20;;
9797;SDS011;4938;57.492;12.652;2022-09-09T15:07:00;1.30;;;1.20;;
9797;SDS011;4938;57.492;12.652;2022-09-09T15:09:47;1.10;;;1.10;;
9797;SDS011;4938;57.492;12.652;2022-09-09T15:12:35;1.20;;;1.10;;
9797;SDS011;4938;57.492;12.652;2022-09-09T15:15:23;1.00;;;1.00;;
9797;SDS011;4938;57.492;12.652;2022-09-09T15:18:10;1.00;;;1.00;;
9797;SDS011;4938;57.492;12.652;2022-09-09T15:20:58;1.00;;;1.00;;
9797;SDS011;4938;57.492;12.652;2022-09-09T15:23:45;1.13;;;1.13;;
9797;SDS011;4938;57.492;12.652;2022-09-09T15:26:32;1.20;;;1.17;;
9797;SDS011;4938;57.492;12.652;2022-09-09T15:29:19;0.97;;;0.97;;
9797;SDS011;4938;57.492;12.652;2022-09-09T15:32:08;1.07;;;1.07;;
9797;SDS011;4938;57.492;12.652;2022-09-09T15:34:54;1.13;;;1.13;;
9797;SDS011;4938;57.492;12.652;2022-09-09T15:37:41;0.90;;;0.90;;
9797;SDS011;4938;57.492;12.652;2022-09-09T15:40:28;0.93;;;0.93;;
9797;SDS011;4938;57.492;12.652;2022-09-09T15:43:17;0.90;;;0.90;;
9797;SDS011;4938;57.492;12.652;2022-09-09T15:46:13;1.07;;;1.07;;
9797;SDS011;4938;57.492;12.652;2022-09-09T15:49:14;0.93;;;0.90;;
9797;SDS011;4938;57.492;12.652;2022-09-09T15:52:02;0.80;;;0.80;;
9797;SDS011;4938;57.492;12.652;2022-09-09T15:54:49;1.00;;;1.00;;
9797;SDS011;4938;57.492;12.652;2022-09-09T15:57:36;1.10;;;1.00;;
9797;SDS011;4938;57.492;12.652;2022-09-09T16:00:23;1.00;;;1.00;;
9797;SDS011;4938;57.492;12.652;2022-09-09T16:03:10;0.93;;;0.93;;
9797;SDS011;4938;57.492;12.652;2022-09-09T16:05:59;1.03;;;0.80;;
9797;SDS011;4938;57.492;12.652;2022-09-09T16:08:47;0.90;;;0.90;;
9797;SDS011;4938;57.492;12.652;2022-09-09T16:11:36;0.83;;;0.83;;
9797;SDS011;4938;57.492;12.652;2022-09-09T16:14:24;0.90;;;0.90;;
9797;SDS011;4938;57.492;12.652;2022-09-09T16:17:12;1.40;;;0.90;;
9797;SDS011;4938;57.492;12.652;2022-09-09T16:19:59;0.93;;;0.93;;
9797;SDS011;4938;57.492;12.652;2022-09-09T16:22:47;1.00;;;1.00;;
9797;SDS011;4938;57.492;12.652;2022-09-09T16:25:34;0.87;;;0.87;;
9797;SDS011;4938;57.492;12.652;2022-09-09T16:28:21;0.80;;;0.80;;
9797;SDS011;4938;57.492;12.652;2022-09-09T16:31:10;0.70;;;0.70;;
9797;SDS011;4938;57.492;12.652;2022-09-09T16:33:59;1.00;;;1.00;;
9797;SDS011;4938;57.492;12.652;2022-09-09T16:36:48;0.80;;;0.80;;
9797;SDS011;4938;57.492;12.652;2022-09-09T16:39:36;0.70;;;0.70;;
9797;SDS011;4938;57.492;12.652;2022-09-09T16:42:23;0.80;;;0.80;;
9797;SDS011;4938;57.492;12.652;2022-09-09T16:45:10;0.80;;;0.80;;
9797;SDS011;4938;57.492;12.652;2022-09-09T16:47:58;0.70;;;0.70;;
9797;SDS011;4938;57.492;12.652;2022-09-09T16:50:45;0.60;;;0.60;;
9797;SDS011;4938;57.492;12.652;2022-09-09T16:53:32;0.70;;;0.70;;
9797;SDS011;4938;57.492;12.652;2022-09-09T16:56:24;0.80;;;0.80;;
9797;SDS011;4938;57.492;12.652;2022-09-09T16:59:13;0.60;;;0.60;;
9797;SDS011;4938;57.492;12.652;2022-09-09T17:02:01;0.83;;;0.83;;
9797;SDS011;4938;57.492;12.652;2022-09-09T17:04:50;0.67;;;0.67;;
9797;SDS011;4938;57.492;12.652;2022-09-09T17:07:37;0.60;;;0.60;;
9797;SDS011;4938;57.492;12.652;2022-09-09T17:10:24;0.60;;;0.60;;
9797;SDS011;4938;57.492;12.652;2022-09-09T17:13:12;0.70;;;0.70;;
9797;SDS011;4938;57.492;12.652;2022-09-09T17:16:03;0.67;;;0.67;;
9797;SDS011;4938;57.492;12.652;2022-09-09T17:18:50;0.53;;;0.53;;
9797;SDS011;4938;57.492;12.652;2022-09-09T17:21:37;0.93;;;0.93;;
9797;SDS011;4938;57.492;12.652;2022-09-09T17:24:25;0.70;;;0.70;;
9797;SDS011;4938;57.492;12.652;2022-09-09T17:27:12;0.50;;;0.50;;
9797;SDS011;4938;57.492;12.652;2022-09-09T17:30:00;0.70;;;0.70;;